Time;durP1;ratioP1;P1;durP2;ratioP2;P2;SDS_P1;SDS_P2;PMS_P1;PMS_P2;Temp;Humidity;BMP_temperature;BMP_pressure;BME280_temperature;BME280_humidity;BME280_pressure;Samples;Min_cycle;Max_cycle;Signal;HPM_P1;HPM_P2
2022/03/24 00:00:20;;;;;;;20.45;13.35;;;12.40;45.50;;;;;;5048222;28;20036;-67
2022/03/24 00:02:45;;;;;;;21.42;13.05;;;12.40;45.70;;;;;;5037278;28;20087;-67
2022/03/24 00:05:12;;;;;;;19.45;12.60;;;12.40;45.80;;;;;;5047175;28;20201;-67
2022/03/24 00:07:38;;;;;;;22.65;14.20;;;12.30;45.80;;;;;;5038271;28;20025;-66
2022/03/24 00:10:05;;;;;;;19.92;13.35;;;12.30;45.90;;;;;;5046946;28;20033;-66
2022/03/24 00:12:32;;;;;;;19.85;13.57;;;12.30;46.10;;;;;;5049016;28;20171;-67
2022/03/24 00:14:57;;;;;;;19.70;13.60;;;12.20;46.20;;;;;;5024271;28;20398;-66
2022/03/24 00:17:23;;;;;;;23.98;14.23;;;12.20;46.20;;;;;;5044611;28;20109;-66
2022/03/24 00:19:48;;;;;;;23.42;15.32;;;12.20;46.20;;;;;;5050750;28;20086;-66
2022/03/24 00:22:14;;;;;;;21.35;13.75;;;12.20;46.30;;;;;;5050157;28;20029;-67
2022/03/24 00:24:42;;;;;;;22.92;14.13;;;12.20;46.20;;;;;;5046702;28;20454;-67
2022/03/24 00:27:07;;;;;;;20.77;14.20;;;12.20;46.30;;;;;;5042721;28;20117;-66
2022/03/24 00:29:33;;;;;;;21.17;13.10;;;12.20;46.40;;;;;;5045335;28;20105;-67
2022/03/24 00:31:59;;;;;;;21.50;14.02;;;12.10;46.40;;;;;;5036341;28;20553;-67
2022/03/24 00:34:24;;;;;;;21.70;14.18;;;12.10;46.40;;;;;;5032706;28;20413;-67
2022/03/24 00:36:50;;;;;;;22.38;14.70;;;12.10;46.50;;;;;;5016257;28;20057;-66
2022/03/24 00:39:16;;;;;;;22.70;14.63;;;12.10;46.40;;;;;;5050782;28;20032;-67
2022/03/24 00:41:43;;;;;;;23.35;14.73;;;12.00;46.40;;;;;;5051271;28;20176;-67
2022/03/24 00:44:09;;;;;;;21.38;14.25;;;12.00;46.50;;;;;;5033738;28;20034;-67
2022/03/24 00:46:35;;;;;;;24.33;14.18;;;12.00;46.60;;;;;;5034246;28;20112;-67
2022/03/24 00:49:00;;;;;;;20.98;13.25;;;12.00;46.70;;;;;;5042069;28;20021;-66
2022/03/24 00:51:26;;;;;;;19.40;13.70;;;12.00;46.80;;;;;;5049164;28;20100;-67
2022/03/24 00:53:52;;;;;;;24.00;14.38;;;11.90;46.80;;;;;;5050577;28;20021;-67
2022/03/24 00:56:18;;;;;;;19.08;13.27;;;11.90;46.80;;;;;;5030772;28;20024;-67
2022/03/24 00:58:44;;;;;;;23.67;14.38;;;11.90;46.90;;;;;;5048817;28;20028;-67
2022/03/24 01:01:12;;;;;;;20.73;14.10;;;11.80;47.00;;;;;;5051663;28;20330;-67
2022/03/24 01:03:39;;;;;;;19.80;14.13;;;11.80;47.00;;;;;;5041473;28;20040;-67
2022/03/24 01:06:07;;;;;;;23.33;14.32;;;11.80;47.00;;;;;;5033754;28;20034;-66
2022/03/24 01:08:33;;;;;;;19.85;13.27;;;11.80;47.10;;;;;;5046208;28;20032;-66
2022/03/24 01:10:59;;;;;;;21.40;13.95;;;11.80;47.10;;;;;;5049795;28;20035;-66
2022/03/24 01:13:25;;;;;;;20.27;13.65;;;11.80;47.10;;;;;;5039756;28;20025;-66
2022/03/24 01:15:51;;;;;;;21.10;13.50;;;11.80;47.20;;;;;;5038876;28;20045;-67
2022/03/24 01:18:19;;;;;;;18.58;13.57;;;11.70;47.20;;;;;;5048336;28;20029;-66
2022/03/24 01:20:45;;;;;;;20.42;13.60;;;11.70;47.20;;;;;;5054873;28;20108;-66
2022/03/24 01:23:12;;;;;;;26.50;14.23;;;11.70;47.20;;;;;;5052918;28;20127;-66
2022/03/24 01:25:42;;;;;;;21.83;13.88;;;11.60;47.10;;;;;;5051072;28;20029;-66
2022/03/24 01:28:09;;;;;;;21.02;14.27;;;11.60;47.30;;;;;;5035892;28;20037;-67
2022/03/24 01:30:38;;;;;;;22.13;14.48;;;11.60;47.40;;;;;;5037482;28;20328;-66
2022/03/24 01:33:03;;;;;;;19.60;13.90;;;11.50;47.40;;;;;;5041111;28;20037;-66
2022/03/24 01:35:29;;;;;;;20.60;14.60;;;11.50;47.50;;;;;;5055099;28;20025;-66
2022/03/24 01:37:54;;;;;;;21.27;13.60;;;11.50;47.60;;;;;;5051936;28;20027;-66
2022/03/24 01:40:20;;;;;;;20.55;13.75;;;11.40;47.70;;;;;;5047783;28;20180;-66
2022/03/24 01:42:47;;;;;;;23.05;14.10;;;11.40;47.70;;;;;;5046941;28;20339;-66
2022/03/24 01:45:14;;;;;;;23.60;13.60;;;11.40;47.60;;;;;;5019012;28;20022;-66
2022/03/24 01:47:40;;;;;;;21.17;13.70;;;11.40;47.60;;;;;;5038811;28;20021;-66
2022/03/24 01:50:09;;;;;;;22.38;14.23;;;11.30;47.40;;;;;;5037226;28;20017;-66
2022/03/24 01:52:35;;;;;;;21.15;13.43;;;11.30;47.40;;;;;;5036070;28;20469;-66
2022/03/24 01:55:01;;;;;;;23.27;14.63;;;11.30;47.50;;;;;;5021084;28;20067;-66
2022/03/24 01:57:29;;;;;;;23.20;14.10;;;11.30;47.60;;;;;;5037679;28;20500;-66
2022/03/24 01:59:56;;;;;;;19.08;13.25;;;11.30;47.70;;;;;;5037145;28;20022;-66
2022/03/24 02:02:21;;;;;;;19.25;13.45;;;11.20;47.80;;;;;;5018545;28;20385;-67
2022/03/24 02:04:47;;;;;;;23.33;14.77;;;11.20;48.60;;;;;;5047613;28;20055;-67
2022/03/24 02:07:18;;;;;;;22.95;14.32;;;11.20;48.00;;;;;;5038677;28;20017;-66
2022/03/24 02:09:45;;;;;;;23.98;15.75;;;11.20;48.00;;;;;;5035116;28;20474;-66
2022/03/24 02:12:14;;;;;;;24.70;14.88;;;11.10;48.10;;;;;;5034958;28;20029;-67
2022/03/24 02:14:41;;;;;;;19.95;13.50;;;11.10;48.20;;;;;;5035434;28;20022;-66
2022/03/24 02:17:07;;;;;;;22.38;14.50;;;11.10;48.30;;;;;;5043350;28;20021;-67
2022/03/24 02:19:36;;;;;;;21.27;13.93;;;11.10;48.30;;;;;;5036743;28;20044;-67
2022/03/24 02:22:17;;;;;;;19.55;13.23;;;11.00;48.30;;;;;;5035765;28;20070;-66
2022/03/24 02:24:43;;;;;;;19.67;13.93;;;11.00;48.30;;;;;;5033318;28;20116;-67
2022/03/24 02:27:10;;;;;;;22.23;14.05;;;10.90;48.30;;;;;;5051694;28;20280;-66
2022/03/24 02:29:36;;;;;;;20.65;14.57;;;11.00;48.40;;;;;;5052594;28;20094;-66
2022/03/24 02:32:07;;;;;;;22.33;14.07;;;10.90;48.30;;;;;;5022603;28;20053;-66
2022/03/24 02:34:38;;;;;;;21.13;14.77;;;11.00;48.40;;;;;;5033166;28;20468;-66
2022/03/24 02:37:07;;;;;;;21.25;15.07;;;10.90;48.40;;;;;;5025909;28;20449;-66
2022/03/24 02:39:46;;;;;;;24.88;14.80;;;10.90;48.40;;;;;;5041137;28;20387;-67
2022/03/24 02:42:14;;;;;;;20.95;14.75;;;10.90;48.50;;;;;;5035345;28;20053;-66
2022/03/24 02:44:45;;;;;;;21.38;14.38;;;10.80;48.50;;;;;;5035447;28;20026;-66
2022/03/24 02:47:12;;;;;;;21.67;13.83;;;10.80;48.70;;;;;;5036321;28;20116;-67
2022/03/24 02:49:38;;;;;;;26.73;15.90;;;10.80;48.70;;;;;;5023570;28;20386;-66
2022/03/24 02:52:05;;;;;;;21.65;14.82;;;10.80;48.80;;;;;;5035332;28;20017;-67
2022/03/24 02:54:32;;;;;;;21.17;14.00;;;10.80;48.70;;;;;;5034913;28;20198;-66
2022/03/24 02:56:57;;;;;;;21.83;13.85;;;10.70;48.60;;;;;;5048026;28;20032;-66
2022/03/24 02:59:23;;;;;;;21.20;14.20;;;10.70;48.70;;;;;;5027391;28;20029;-66
2022/03/24 03:01:54;;;;;;;22.77;15.18;;;10.70;48.70;;;;;;5045085;28;20033;-66
2022/03/24 03:04:20;;;;;;;22.58;14.45;;;10.70;48.80;;;;;;5045659;28;20090;-66
2022/03/24 03:06:46;;;;;;;23.90;15.52;;;10.70;48.80;;;;;;5049160;28;20048;-67
2022/03/24 03:09:16;;;;;;;22.35;14.20;;;10.70;48.80;;;;;;5038958;28;20049;-66
2022/03/24 03:11:45;;;;;;;23.15;15.95;;;10.60;48.80;;;;;;5039748;28;20026;-66
2022/03/24 03:14:13;;;;;;;24.02;15.52;;;10.60;48.90;;;;;;5049667;28;20398;-66
2022/03/24 03:16:39;;;;;;;22.63;14.35;;;10.60;49.00;;;;;;5050933;28;20133;-66
2022/03/24 03:19:08;;;;;;;23.58;15.35;;;10.60;49.10;;;;;;5050305;28;20032;-66
2022/03/24 03:21:35;;;;;;;24.17;15.77;;;10.60;49.10;;;;;;5044168;28;20037;-67
2022/03/24 03:24:01;;;;;;;24.10;14.48;;;10.50;49.20;;;;;;5040155;28;20094;-67
2022/03/24 03:26:27;;;;;;;23.75;15.00;;;10.50;49.10;;;;;;5030115;28;20017;-67
2022/03/24 03:28:53;;;;;;;23.30;14.90;;;10.40;49.20;;;;;;5034441;28;20025;-67
2022/03/24 03:31:20;;;;;;;24.70;15.77;;;10.40;49.30;;;;;;5033407;28;20071;-67
2022/03/24 03:33:46;;;;;;;24.00;15.40;;;10.40;49.40;;;;;;5036460;28;20029;-66
2022/03/24 03:36:12;;;;;;;23.33;15.75;;;10.30;49.40;;;;;;5046675;28;20025;-67
2022/03/24 03:38:38;;;;;;;25.40;16.17;;;10.30;49.40;;;;;;5034627;28;20351;-67
2022/03/24 03:41:04;;;;;;;24.45;15.95;;;10.30;49.40;;;;;;5043858;28;20082;-67
2022/03/24 03:43:30;;;;;;;27.13;15.32;;;10.30;50.00;;;;;;5045067;28;20037;-67
2022/03/24 03:45:55;;;;;;;25.27;16.10;;;10.30;49.30;;;;;;5020304;28;20060;-66
2022/03/24 03:48:21;;;;;;;27.13;16.00;;;10.20;49.40;;;;;;5033977;28;20083;-67
2022/03/24 03:50:48;;;;;;;23.20;15.80;;;10.20;49.60;;;;;;5019653;28;20021;-67
2022/03/24 03:53:14;;;;;;;23.10;16.27;;;10.20;49.80;;;;;;5036360;28;20041;-67
2022/03/24 03:55:40;;;;;;;25.30;16.40;;;10.20;49.90;;;;;;5049881;28;20063;-67
2022/03/24 03:58:06;;;;;;;25.50;15.82;;;10.10;49.90;;;;;;5051961;28;20435;-67
2022/03/24 04:00:53;;;;;;;23.83;15.95;;;10.10;50.00;;;;;;5050521;28;20041;-67
2022/03/24 04:03:26;;;;;;;24.73;15.52;;;10.10;50.10;;;;;;5040812;28;20026;-67
2022/03/24 04:05:57;;;;;;;26.17;16.05;;;10.10;50.30;;;;;;5048335;28;20454;-67
2022/03/24 04:08:23;;;;;;;24.80;16.23;;;10.00;50.40;;;;;;5050840;28;20382;-66
2022/03/24 04:10:49;;;;;;;24.40;15.80;;;10.00;50.40;;;;;;5043896;28;20082;-67
2022/03/24 04:13:15;;;;;;;22.92;16.38;;;10.00;50.50;;;;;;5050389;28;20077;-67
2022/03/24 04:15:41;;;;;;;26.70;16.80;;;10.00;50.70;;;;;;5042545;28;20021;-67
2022/03/24 04:18:07;;;;;;;26.30;16.92;;;10.00;50.80;;;;;;5040190;28;20033;-67
2022/03/24 04:20:34;;;;;;;24.63;15.55;;;9.90;50.90;;;;;;5039284;28;20036;-67
2022/03/24 04:23:02;;;;;;;28.17;17.83;;;9.90;50.90;;;;;;5051052;28;20040;-67
2022/03/24 04:25:28;;;;;;;25.75;17.88;;;9.90;51.00;;;;;;5049997;28;20025;-67
2022/03/24 04:27:53;;;;;;;24.52;16.45;;;9.90;51.00;;;;;;5038041;28;20453;-67
2022/03/24 04:30:19;;;;;;;22.77;14.68;;;9.90;51.00;;;;;;5046050;28;20033;-67
2022/03/24 04:32:45;;;;;;;23.63;16.35;;;9.80;51.10;;;;;;5034110;28;20056;-67
2022/03/24 04:35:13;;;;;;;24.17;15.82;;;9.80;51.20;;;;;;5033037;28;20116;-67
2022/03/24 04:37:40;;;;;;;27.85;17.27;;;9.80;51.20;;;;;;5034804;28;20465;-67
2022/03/24 04:40:07;;;;;;;25.05;15.88;;;9.80;51.30;;;;;;5049500;28;20132;-67
2022/03/24 04:42:33;;;;;;;27.02;16.35;;;9.80;51.40;;;;;;5047654;28;20388;-66
2022/03/24 04:45:00;;;;;;;25.10;16.90;;;9.70;51.50;;;;;;5042401;28;20048;-67
2022/03/24 04:47:26;;;;;;;21.13;15.18;;;9.70;51.50;;;;;;5051520;28;20021;-67
2022/03/24 04:49:52;;;;;;;24.98;16.33;;;9.70;51.60;;;;;;5052289;28;20630;-67
2022/03/24 04:52:19;;;;;;;24.27;16.83;;;9.70;51.80;;;;;;5053168;28;20025;-67
2022/03/24 04:54:45;;;;;;;25.67;17.00;;;9.70;51.90;;;;;;5053413;28;20029;-67
2022/03/24 04:57:10;;;;;;;24.60;16.98;;;9.70;52.10;;;;;;5040458;28;20021;-67
2022/03/24 04:59:36;;;;;;;23.15;16.20;;;9.60;52.10;;;;;;5051557;28;20036;-67
2022/03/24 05:02:01;;;;;;;24.88;16.45;;;9.60;52.20;;;;;;5038671;28;20365;-67
2022/03/24 05:04:27;;;;;;;26.02;17.02;;;9.60;52.30;;;;;;5034304;28;20041;-67
2022/03/24 05:06:53;;;;;;;28.85;18.77;;;9.60;52.20;;;;;;5036560;28;20373;-67
2022/03/24 05:09:19;;;;;;;27.90;18.10;;;9.60;52.30;;;;;;5046262;28;20057;-67
2022/03/24 05:11:45;;;;;;;24.02;16.30;;;9.60;52.40;;;;;;5047178;28;20481;-67
2022/03/24 05:14:11;;;;;;;27.23;17.27;;;9.60;52.30;;;;;;5046129;28;20140;-67
2022/03/24 05:16:38;;;;;;;27.40;18.15;;;9.60;52.30;;;;;;5035936;28;20026;-67
2022/03/24 05:19:04;;;;;;;25.55;17.60;;;9.50;52.30;;;;;;5038408;28;20105;-67
2022/03/24 05:21:31;;;;;;;30.38;17.05;;;9.50;52.30;;;;;;5033098;28;20055;-66
2022/03/24 05:23:57;;;;;;;26.38;16.45;;;9.50;52.20;;;;;;5038814;28;20040;-68
2022/03/24 05:26:24;;;;;;;25.27;17.50;;;9.40;52.20;;;;;;5040559;28;20060;-67
2022/03/24 05:28:50;;;;;;;26.13;17.98;;;9.40;52.30;;;;;;5053609;28;20067;-67
2022/03/24 05:31:17;;;;;;;31.05;17.67;;;9.40;52.40;;;;;;5040202;28;20048;-67
2022/03/24 05:33:43;;;;;;;29.05;18.25;;;9.40;52.50;;;;;;5019260;28;20120;-67
2022/03/24 05:36:09;;;;;;;26.27;17.98;;;9.40;52.50;;;;;;5035833;28;20041;-65
2022/03/24 05:38:35;;;;;;;29.33;17.65;;;9.30;52.50;;;;;;5038016;28;20378;-66
2022/03/24 05:41:01;;;;;;;29.70;18.45;;;9.40;52.60;;;;;;5053041;28;20281;-66
2022/03/24 05:43:27;;;;;;;31.95;18.70;;;9.30;52.60;;;;;;5035738;28;20451;-66
2022/03/24 05:45:53;;;;;;;32.50;19.25;;;9.30;52.80;;;;;;5035544;28;20040;-66
2022/03/24 05:48:18;;;;;;;26.83;18.02;;;9.30;52.80;;;;;;5037384;28;20351;-66
2022/03/24 05:51:10;;;;;;;27.75;17.98;;;9.30;53.00;;;;;;5042751;28;20040;-66
2022/03/24 05:53:36;;;;;;;26.35;18.85;;;9.30;53.00;;;;;;5038246;28;20021;-66
2022/03/24 05:56:01;;;;;;;26.67;17.83;;;9.30;53.10;;;;;;5055616;28;20467;-65
2022/03/24 05:58:27;;;;;;;29.60;18.88;;;9.30;53.20;;;;;;5054192;28;20116;-66
2022/03/24 06:00:54;;;;;;;26.00;18.42;;;9.30;53.40;;;;;;5031309;28;20033;-66
2022/03/24 06:03:22;;;;;;;27.08;18.10;;;9.30;53.70;;;;;;5037858;28;20083;-66
2022/03/24 06:05:48;;;;;;;28.00;18.05;;;9.30;53.90;;;;;;5040938;28;20453;-66
2022/03/24 06:08:14;;;;;;;29.00;19.58;;;9.20;54.00;;;;;;5054067;28;20029;-66
2022/03/24 06:10:40;;;;;;;26.85;17.67;;;9.30;54.20;;;;;;5037961;28;20099;-66
2022/03/24 06:13:06;;;;;;;28.45;18.13;;;9.30;54.30;;;;;;5047814;28;20446;-66
2022/03/24 06:15:32;;;;;;;28.88;18.05;;;9.30;54.40;;;;;;5054958;28;20362;-65
2022/03/24 06:17:58;;;;;;;23.58;16.63;;;9.30;54.50;;;;;;5038672;28;20097;-63
2022/03/24 06:20:23;;;;;;;25.77;17.48;;;9.30;54.50;;;;;;5039815;28;20159;-65
2022/03/24 06:22:52;;;;;;;27.20;17.95;;;9.40;54.50;;;;;;5048695;28;20037;-66
2022/03/24 06:25:18;;;;;;;29.02;19.25;;;9.50;54.50;;;;;;5043846;28;20045;-65
2022/03/24 06:27:46;;;;;;;30.98;20.60;;;9.50;54.30;;;;;;5042342;28;20029;-65
2022/03/24 06:30:14;;;;;;;30.65;19.02;;;9.60;54.30;;;;;;5047463;28;20025;-67
2022/03/24 06:32:40;;;;;;;29.55;20.25;;;9.60;54.20;;;;;;5037096;28;20025;-66
2022/03/24 06:35:08;;;;;;;27.98;19.33;;;9.70;54.00;;;;;;5035202;28;20029;-64
2022/03/24 06:37:39;;;;;;;25.63;18.13;;;9.80;53.70;;;;;;5039530;28;20107;-64
2022/03/24 06:40:15;;;;;;;28.80;19.52;;;10.00;53.50;;;;;;5034851;28;20041;-64
2022/03/24 06:42:40;;;;;;;28.45;17.77;;;10.10;53.20;;;;;;5042444;28;20036;-63
2022/03/24 06:45:07;;;;;;;31.40;19.15;;;10.30;52.90;;;;;;5044298;28;20151;-64
2022/03/24 06:47:33;;;;;;;29.02;19.17;;;10.40;52.50;;;;;;5047960;28;20025;-64
2022/03/24 06:49:59;;;;;;;31.27;19.85;;;10.50;52.30;;;;;;5043509;28;20026;-64
2022/03/24 06:52:25;;;;;;;30.13;18.98;;;10.60;51.80;;;;;;5035392;28;20025;-64
2022/03/24 06:54:50;;;;;;;29.35;19.02;;;10.80;51.50;;;;;;5046819;28;20025;-64
2022/03/24 06:57:16;;;;;;;31.65;20.63;;;11.00;51.20;;;;;;5046616;28;20029;-64
2022/03/24 06:59:42;;;;;;;27.63;17.98;;;11.20;50.60;;;;;;5018234;28;20078;-65
2022/03/24 07:02:08;;;;;;;29.13;19.58;;;11.50;50.10;;;;;;5044100;28;20028;-64
2022/03/24 07:04:34;;;;;;;24.15;18.15;;;11.60;49.70;;;;;;5047948;28;20030;-64
2022/03/24 07:07:00;;;;;;;29.90;19.20;;;11.80;49.40;;;;;;5043349;28;20036;-64
2022/03/24 07:09:26;;;;;;;28.25;18.67;;;11.90;49.10;;;;;;5044702;28;20033;-64
2022/03/24 07:11:52;;;;;;;27.17;18.90;;;12.10;48.80;;;;;;5036358;28;20446;-64
2022/03/24 07:14:17;;;;;;;29.27;19.70;;;12.30;48.50;;;;;;5038798;28;20067;-64
2022/03/24 07:16:44;;;;;;;33.63;18.83;;;12.40;48.50;;;;;;5054082;28;20370;-64
2022/03/24 07:19:09;;;;;;;26.63;19.08;;;12.40;48.60;;;;;;5054119;28;20056;-64
2022/03/24 07:21:35;;;;;;;30.67;18.50;;;12.50;48.90;;;;;;5052235;28;20446;-65
2022/03/24 07:24:02;;;;;;;29.05;17.75;;;12.50;48.80;;;;;;5050445;28;20641;-64
2022/03/24 07:26:28;;;;;;;26.48;17.95;;;12.50;48.60;;;;;;5052024;28;20479;-64
2022/03/24 07:28:53;;;;;;;28.02;18.25;;;12.60;48.40;;;;;;5044762;28;20032;-64
2022/03/24 07:31:20;;;;;;;28.75;17.13;;;12.80;48.30;;;;;;5044457;28;20224;-65
2022/03/24 07:33:47;;;;;;;28.88;18.65;;;12.90;48.00;;;;;;5048689;28;20025;-64
2022/03/24 07:36:13;;;;;;;25.42;17.80;;;13.00;47.60;;;;;;5038196;28;20038;-64
2022/03/24 07:38:38;;;;;;;27.35;18.40;;;13.20;47.40;;;;;;5035712;28;20379;-64
2022/03/24 07:41:06;;;;;;;23.67;16.80;;;13.30;47.30;;;;;;5040646;28;20029;-64
2022/03/24 07:43:32;;;;;;;26.48;17.83;;;13.50;47.20;;;;;;5029010;28;20115;-64
2022/03/24 07:45:58;;;;;;;27.33;18.98;;;13.60;47.10;;;;;;5029715;28;20393;-64
2022/03/24 07:48:25;;;;;;;27.05;18.15;;;13.70;46.80;;;;;;5039525;28;20041;-64
2022/03/24 07:50:53;;;;;;;32.53;18.42;;;13.90;46.70;;;;;;5052171;28;20111;-65
2022/03/24 07:53:27;;;;;;;25.77;18.17;;;14.10;46.50;;;;;;5049338;28;20037;-64
2022/03/24 07:55:56;;;;;;;23.52;16.75;;;14.30;46.00;;;;;;5036772;28;20320;-64
2022/03/24 07:58:22;;;;;;;29.67;17.75;;;14.50;45.90;;;;;;5034420;28;20036;-64
2022/03/24 08:00:48;;;;;;;29.60;18.60;;;14.70;45.70;;;;;;5033064;28;20415;-64
2022/03/24 08:03:16;;;;;;;26.83;17.17;;;15.00;45.20;;;;;;5050856;28;20079;-64
2022/03/24 08:05:44;;;;;;;31.88;18.38;;;15.20;44.60;;;;;;5050551;28;20493;-64
2022/03/24 08:08:10;;;;;;;27.45;17.15;;;15.40;44.10;;;;;;5048045;28;20033;-64
2022/03/24 08:10:37;;;;;;;25.25;16.90;;;15.60;43.80;;;;;;5035388;28;20029;-64
2022/03/24 08:13:04;;;;;;;28.27;17.63;;;15.80;43.50;;;;;;5047875;28;20032;-64
2022/03/24 08:15:30;;;;;;;30.75;18.38;;;16.00;43.30;;;;;;5039610;28;20033;-64
2022/03/24 08:17:56;;;;;;;27.52;18.13;;;16.20;42.90;;;;;;5046315;28;20025;-64
2022/03/24 08:20:23;;;;;;;27.85;17.90;;;16.40;42.70;;;;;;5039998;28;20048;-64
2022/03/24 08:22:49;;;;;;;23.35;17.02;;;16.60;42.40;;;;;;5044450;28;20347;-65
2022/03/24 08:25:15;;;;;;;27.85;17.50;;;16.80;41.90;;;;;;5043445;28;20025;-64
2022/03/24 08:27:41;;;;;;;27.10;18.02;;;16.90;41.50;;;;;;5049397;28;20032;-65
2022/03/24 08:30:07;;;;;;;28.40;18.48;;;17.20;41.40;;;;;;5048574;28;20029;-64
2022/03/24 08:32:33;;;;;;;27.23;18.83;;;17.30;41.10;;;;;;5046628;28;20049;-65
2022/03/24 08:34:59;;;;;;;26.90;17.75;;;17.50;40.70;;;;;;5049432;28;20032;-64
2022/03/24 08:37:24;;;;;;;28.50;19.33;;;17.70;40.50;;;;;;5022948;28;20037;-65
2022/03/24 08:39:50;;;;;;;28.17;18.25;;;17.80;40.40;;;;;;5044648;28;20093;-64
2022/03/24 08:42:15;;;;;;;27.48;17.20;;;18.00;40.40;;;;;;5057616;28;20484;-64
2022/03/24 08:44:41;;;;;;;25.00;16.15;;;18.20;40.20;;;;;;5065001;28;20033;-65
2022/03/24 08:47:07;;;;;;;24.60;16.98;;;18.30;39.90;;;;;;5050498;28;20087;-64
2022/03/24 08:49:33;;;;;;;27.63;17.92;;;18.40;39.70;;;;;;5045663;28;20458;-64
2022/03/24 08:51:59;;;;;;;24.33;16.77;;;18.60;39.50;;;;;;5050536;28;20097;-65
2022/03/24 08:54:24;;;;;;;27.63;18.00;;;18.70;39.10;;;;;;5050667;28;20430;-65
2022/03/24 08:56:50;;;;;;;21.98;16.30;;;18.80;38.60;;;;;;5042297;28;20450;-65
2022/03/24 08:59:16;;;;;;;29.13;18.23;;;19.00;38.20;;;;;;5037467;28;20418;-65
2022/03/24 09:01:43;;;;;;;20.92;15.20;;;19.10;37.70;;;;;;5051921;28;20067;-65
2022/03/24 09:04:10;;;;;;;26.00;16.65;;;19.20;37.30;;;;;;5045290;28;20349;-65
2022/03/24 09:06:36;;;;;;;23.45;15.45;;;19.30;36.80;;;;;;5043085;28;20117;-65
2022/03/24 09:09:03;;;;;;;24.77;17.27;;;19.40;36.40;;;;;;5038259;28;20450;-65
2022/03/24 09:11:28;;;;;;;23.55;15.88;;;19.50;36.20;;;;;;5052911;28;20029;-65
2022/03/24 09:13:54;;;;;;;21.77;15.48;;;19.70;35.70;;;;;;5057380;28;20044;-65
2022/03/24 09:16:20;;;;;;;20.90;15.45;;;19.80;35.30;;;;;;5055660;28;20102;-65
2022/03/24 09:18:46;;;;;;;22.98;14.70;;;20.00;35.10;;;;;;5056831;28;20143;-65
2022/03/24 09:21:13;;;;;;;22.05;15.45;;;20.00;34.60;;;;;;5054418;28;20029;-65
2022/03/24 09:23:38;;;;;;;20.90;14.00;;;20.10;34.30;;;;;;5055178;28;20040;-65
2022/03/24 09:26:04;;;;;;;23.33;16.20;;;20.20;34.00;;;;;;5056257;28;20029;-65
2022/03/24 09:28:31;;;;;;;22.23;16.00;;;20.30;34.00;;;;;;5056050;28;20037;-65
2022/03/24 09:30:57;;;;;;;26.85;15.80;;;20.50;33.90;;;;;;5050279;28;20048;-66
2022/03/24 09:33:23;;;;;;;23.40;15.25;;;20.60;33.60;;;;;;5056710;28;20045;-65
2022/03/24 09:35:50;;;;;;;24.70;16.90;;;20.60;33.60;;;;;;5043052;28;20026;-65
2022/03/24 09:38:16;;;;;;;23.50;16.65;;;20.60;33.70;;;;;;5037335;28;20026;-65
2022/03/24 09:40:43;;;;;;;22.27;15.00;;;20.70;33.60;;;;;;5037746;28;20056;-65
2022/03/24 09:43:09;;;;;;;22.75;14.95;;;20.80;33.40;;;;;;5036950;28;20029;-65
2022/03/24 09:45:37;;;;;;;21.60;13.27;;;20.80;33.00;;;;;;5035783;28;20033;-65
2022/03/24 09:48:06;;;;;;;20.10;13.75;;;21.00;32.90;;;;;;5037306;28;20144;-65
2022/03/24 09:50:34;;;;;;;20.45;12.23;;;21.10;32.60;;;;;;5041432;28;20068;-66
2022/03/24 09:53:00;;;;;;;18.35;11.00;;;21.20;32.50;;;;;;5055910;28;20029;-66
2022/03/24 09:55:26;;;;;;;20.58;12.10;;;21.30;32.30;;;;;;5057056;28;20033;-65
2022/03/24 09:57:52;;;;;;;16.60;11.40;;;21.30;32.00;;;;;;5056565;28;20381;-65
2022/03/24 10:00:18;;;;;;;19.85;12.38;;;21.40;31.90;;;;;;5039467;28;20057;-65
2022/03/24 10:03:07;;;;;;;19.10;10.95;;;21.50;31.90;;;;;;5035436;28;20034;-65
2022/03/24 10:05:33;;;;;;;16.80;10.30;;;21.60;31.40;;;;;;5036966;28;20033;-65
2022/03/24 10:08:05;;;;;;;16.73;10.02;;;21.70;31.40;;;;;;5049490;28;20029;-65
2022/03/24 10:10:34;;;;;;;17.17;10.63;;;21.70;31.20;;;;;;5056247;28;20033;-65
2022/03/24 10:13:04;;;;;;;17.05;10.48;;;21.70;31.00;;;;;;5053894;28;20072;-65
2022/03/24 10:15:30;;;;;;;19.38;10.80;;;21.70;30.80;;;;;;5055441;28;20048;-65
2022/03/24 10:17:57;;;;;;;19.33;11.23;;;21.70;30.80;;;;;;5055727;28;20033;-65
2022/03/24 10:20:28;;;;;;;20.60;10.27;;;21.80;30.80;;;;;;5056331;28;20032;-66
2022/03/24 10:23:05;;;;;;;14.10;9.23;;;21.80;30.70;;;;;;5055354;28;20369;-65
2022/03/24 10:25:38;;;;;;;18.08;10.95;;;21.90;30.80;;;;;;5056359;28;20031;-65
2022/03/24 10:28:09;;;;;;;17.42;10.13;;;21.90;30.80;;;;;;5050312;28;20108;-66
2022/03/24 10:30:51;;;;;;;19.30;10.98;;;22.00;30.80;;;;;;5018751;28;20136;-65
2022/03/24 10:33:29;;;;;;;16.75;10.07;;;22.10;30.60;;;;;;5036635;28;20359;-65
2022/03/24 10:36:18;;;;;;;20.35;10.60;;;22.20;30.50;;;;;;5036129;28;20077;-66
2022/03/24 10:38:47;;;;;;;17.92;11.43;;;22.20;30.30;;;;;;5035153;28;20032;-65
2022/03/24 10:41:30;;;;;;;20.90;12.48;;;22.20;30.30;;;;;;5036089;28;20037;-65
2022/03/24 10:43:58;;;;;;;18.08;12.68;;;22.30;30.00;;;;;;5035265;28;20025;-66
2022/03/24 10:46:30;;;;;;;19.75;12.95;;;22.30;30.10;;;;;;5034450;28;20048;-65
2022/03/24 10:48:55;;;;;;;;;;;22.30;30.10;;;;;;5045768;28;20060;-66
2022/03/24 10:51:31;;;;;;;21.98;14.10;;;22.30;30.40;;;;;;5055974;28;20268;-66
2022/03/24 10:54:18;;;;;;;16.98;11.48;;;22.30;30.00;;;;;;5055160;28;20024;-66
2022/03/24 10:57:12;;;;;;;20.63;11.30;;;22.30;29.60;;;;;;5039415;28;20033;-65
2022/03/24 10:59:47;;;;;;;16.25;10.52;;;22.30;29.40;;;;;;5034580;28;20045;-66
2022/03/24 11:02:15;;;;;;;16.02;10.75;;;22.30;29.40;;;;;;5034334;28;20067;-66
2022/03/24 11:04:41;;;;;;;16.70;10.77;;;22.30;29.20;;;;;;5035449;28;20049;-66
2022/03/24 11:07:07;;;;;;;17.95;11.35;;;22.30;28.90;;;;;;5041139;28;20082;-66
2022/03/24 11:09:34;;;;;;;18.13;10.48;;;22.30;28.80;;;;;;5036588;28;20037;-69
2022/03/24 11:12:26;;;;;;;16.80;10.93;;;22.30;28.80;;;;;;5036034;28;20032;-69
2022/03/24 11:14:54;;;;;;;;;;;22.40;28.60;;;;;;5036417;28;20033;-65
2022/03/24 11:17:22;;;;;;;15.73;10.38;;;22.30;29.00;;;;;;5037124;28;19909;-66
2022/03/24 11:19:55;;;;;;;14.60;10.32;;;22.30;28.80;;;;;;5035054;28;20161;-67
2022/03/24 11:22:21;;;;;;;22.85;13.63;;;22.40;28.80;;;;;;5034356;28;20482;-66
2022/03/24 11:24:47;;;;;;;16.10;11.52;;;22.40;28.90;;;;;;5036472;28;20035;-66
2022/03/24 11:27:15;;;;;;;18.15;12.20;;;22.40;28.80;;;;;;5036705;28;20040;-66
2022/03/24 11:29:41;;;;;;;19.85;12.50;;;22.40;28.60;;;;;;5037430;28;20091;-67
2022/03/24 11:32:08;;;;;;;18.98;11.65;;;22.40;28.60;;;;;;5041039;28;20049;-68
2022/03/24 11:34:34;;;;;;;18.75;13.05;;;22.40;28.50;;;;;;5036031;28;20426;-68
2022/03/24 11:37:01;;;;;;;25.40;12.75;;;22.40;28.50;;;;;;5040516;28;20108;-66
2022/03/24 11:39:27;;;;;;;18.08;12.65;;;22.30;28.60;;;;;;5056389;28;20055;-66
2022/03/24 11:41:55;;;;;;;18.25;12.60;;;22.30;28.80;;;;;;5060197;28;20032;-66
2022/03/24 11:44:40;;;;;;;20.08;11.77;;;22.40;28.80;;;;;;5042809;28;20025;-65
2022/03/24 11:47:20;;;;;;;17.90;12.13;;;22.40;28.70;;;;;;5042697;28;20041;-67
2022/03/24 11:50:06;;;;;;;17.33;11.30;;;22.40;28.60;;;;;;5037331;28;20037;-67
2022/03/24 11:52:32;;;;;;;17.48;10.95;;;22.40;28.60;;;;;;5036509;28;20033;-69
2022/03/24 11:54:57;;;;;;;20.05;11.90;;;22.40;28.70;;;;;;5036253;28;20022;-69
2022/03/24 11:57:36;;;;;;;16.50;11.77;;;22.40;28.70;;;;;;5038361;28;20037;-70
2022/03/24 12:00:14;;;;;;;21.85;12.00;;;22.50;28.70;;;;;;5045671;28;20202;-70
2022/03/24 12:02:45;;;;;;;17.88;11.43;;;22.40;28.80;;;;;;5051526;28;20079;-70
2022/03/24 12:05:12;;;;;;;15.10;11.83;;;22.40;28.80;;;;;;5036084;28;20036;-71
2022/03/24 12:07:38;;;;;;;20.83;13.23;;;22.50;29.00;;;;;;5031969;28;20299;-70
2022/03/24 12:10:07;;;;;;;21.95;14.07;;;22.50;28.90;;;;;;5052319;28;20037;-70
2022/03/24 12:12:34;;;;;;;21.20;13.38;;;22.40;29.00;;;;;;5045441;28;20042;-70
2022/03/24 12:15:15;;;;;;;18.77;12.65;;;22.40;29.10;;;;;;5050907;28;20029;-70
2022/03/24 12:18:04;;;;;;;21.25;11.70;;;22.30;28.90;;;;;;5049935;28;20044;-69
2022/03/24 12:20:46;;;;;;;14.82;10.38;;;22.20;28.80;;;;;;5029512;28;20025;-69
2022/03/24 12:23:11;;;;;;;17.73;10.55;;;22.10;28.60;;;;;;5035562;28;20052;-69
2022/03/24 12:25:38;;;;;;;19.52;13.23;;;22.10;28.50;;;;;;5047162;28;20041;-68
2022/03/24 12:28:24;;;;;;;18.52;12.75;;;22.00;28.60;;;;;;5042516;28;20120;-69
2022/03/24 12:30:59;;;;;;;18.70;12.18;;;21.90;28.60;;;;;;5037884;28;20042;-67
2022/03/24 12:33:32;;;;;;;17.52;11.60;;;21.80;28.50;;;;;;5037879;28;20116;-68